Time;durP1;ratioP1;P1;durP2;ratioP2;P2;SDS_P1;SDS_P2;PMS_P1;PMS_P2;Temp;Humidity;BMP_temperature;BMP_pressure;BME280_temperature;BME280_humidity;BME280_pressure;Samples;Min_cycle;Max_cycle;Signal;HPM_P1;HPM_P2
2023/10/08 00:01:19;;;;;;;1999.90;999.90;;;13.20;99.90;;;;;;4972254;28;20098;-71
2023/10/08 00:03:51;;;;;;;1999.90;999.90;;;13.20;99.90;;;;;;4970005;28;20049;-71
2023/10/08 00:06:23;;;;;;;1999.90;999.90;;;13.10;99.90;;;;;;4975023;28;20148;-71
2023/10/08 00:08:50;;;;;;;1999.90;999.90;;;13.10;99.90;;;;;;4971438;28;20049;-71
2023/10/08 00:11:16;;;;;;;1999.90;999.90;;;13.10;99.90;;;;;;4969752;28;20039;-71
2023/10/08 00:13:43;;;;;;;1999.90;999.90;;;13.10;99.90;;;;;;4975268;28;20050;-72
2023/10/08 00:16:11;;;;;;;1999.90;999.90;;;13.10;99.90;;;;;;4976959;28;20038;-71
2023/10/08 00:18:40;;;;;;;1999.90;999.90;;;13.10;99.90;;;;;;4981472;28;20456;-71
2023/10/08 00:23:41;;;;;;;1999.90;999.90;;;13.10;99.90;;;;;;4986340;28;20496;-71
2023/10/08 00:26:08;;;;;;;1999.90;999.90;;;13.00;99.90;;;;;;4968636;28;20043;-71
2023/10/08 00:28:34;;;;;;;1999.90;999.90;;;13.00;99.90;;;;;;4967570;28;20391;-71
2023/10/08 00:31:12;;;;;;;1999.90;999.90;;;13.00;99.90;;;;;;4969708;28;20045;-71
2023/10/08 00:33:43;;;;;;;1999.90;999.90;;;12.90;99.90;;;;;;4970070;28;20411;-71
2023/10/08 00:36:19;;;;;;;1999.90;999.90;;;12.90;99.90;;;;;;4966765;28;20035;-71
2023/10/08 00:38:53;;;;;;;1999.90;999.90;;;12.90;99.90;;;;;;4984981;28;20043;-71
2023/10/08 00:41:21;;;;;;;1999.90;999.90;;;12.90;99.90;;;;;;4965945;28;20458;-70
2023/10/08 00:43:48;;;;;;;1999.90;999.90;;;12.90;99.90;;;;;;4969777;28;20130;-71
2023/10/08 00:46:29;;;;;;;1999.90;999.90;;;12.90;99.90;;;;;;4969234;28;20068;-71
2023/10/08 00:48:56;;;;;;;1999.90;999.90;;;12.90;99.90;;;;;;4973301;28;20049;-71
2023/10/08 00:54:08;;;;;;;1999.90;999.90;;;12.90;99.90;;;;;;4973193;28;20054;-71
2023/10/08 00:59:16;;;;;;;1999.90;999.90;;;12.90;99.90;;;;;;4974239;28;20050;-71
2023/10/08 01:01:51;;;;;;;1999.90;999.90;;;12.90;99.90;;;;;;4985565;28;20042;-71
2023/10/08 01:04:26;;;;;;;1999.90;999.90;;;12.90;99.90;;;;;;4979965;28;20039;-71
2023/10/08 01:07:01;;;;;;;1999.90;999.90;;;12.90;99.90;;;;;;4981995;28;20087;-71
2023/10/08 01:09:37;;;;;;;1999.90;999.90;;;13.00;99.90;;;;;;4986225;28;20053;-71
2023/10/08 01:12:21;;;;;;;1999.90;999.90;;;13.00;99.90;;;;;;4978966;28;20418;-71
2023/10/08 01:14:48;;;;;;;1999.90;999.90;;;13.00;99.90;;;;;;4982464;28;20184;-71
2023/10/08 01:17:16;;;;;;;1999.90;999.90;;;13.00;99.90;;;;;;4981510;28;20095;-71
2023/10/08 01:19:50;;;;;;;1999.90;999.90;;;13.00;99.90;;;;;;4983645;28;20099;-71
2023/10/08 01:22:18;;;;;;;1999.90;999.90;;;13.00;99.90;;;;;;4968494;28;20050;-71
2023/10/08 01:24:53;;;;;;;1999.90;999.90;;;13.00;99.90;;;;;;4985213;28;20098;-71
2023/10/08 01:27:28;;;;;;;1999.90;999.90;;;13.00;99.90;;;;;;4986733;28;20574;-71
2023/10/08 01:29:54;;;;;;;1999.90;999.90;;;13.00;99.90;;;;;;4989036;28;20049;-71
2023/10/08 01:32:23;;;;;;;1999.90;999.90;;;13.00;99.90;;;;;;4976729;28;20494;-71
2023/10/08 01:34:49;;;;;;;1999.90;999.90;;;13.00;99.90;;;;;;4972862;28;20042;-71
2023/10/08 01:37:19;;;;;;;1999.90;999.90;;;13.00;99.90;;;;;;4983080;28;20042;-71
2023/10/08 01:39:49;;;;;;;1999.90;999.90;;;13.00;99.90;;;;;;5002164;28;20050;-71
2023/10/08 01:42:23;;;;;;;1999.90;999.90;;;13.00;99.90;;;;;;4971395;28;20131;-71
2023/10/08 01:44:55;;;;;;;1999.90;999.90;;;13.00;99.90;;;;;;4988075;28;20044;-71
2023/10/08 01:47:25;;;;;;;1999.90;999.90;;;13.00;99.90;;;;;;4984502;28;20436;-71
2023/10/08 01:49:54;;;;;;;1999.90;999.90;;;13.00;99.90;;;;;;4978550;28;20050;-71
2023/10/08 01:52:22;;;;;;;1999.90;999.90;;;13.00;99.90;;;;;;4985629;28;20054;-71
2023/10/08 01:54:49;;;;;;;1999.90;999.90;;;13.00;99.90;;;;;;4987605;28;20616;-71
2023/10/08 01:57:16;;;;;;;1999.90;999.90;;;13.00;99.90;;;;;;4979076;28;20069;-71
2023/10/08 01:59:44;;;;;;;1999.90;999.90;;;13.00;99.90;;;;;;4978395;28;20051;-71
2023/10/08 02:02:10;;;;;;;1999.90;999.90;;;13.00;99.90;;;;;;4986402;28;20479;-71
2023/10/08 02:04:36;;;;;;;1999.90;999.90;;;13.00;99.90;;;;;;4976911;28;20049;-71
2023/10/08 02:07:08;;;;;;;1999.90;999.90;;;12.90;99.90;;;;;;4984919;28;20490;-71
2023/10/08 02:09:37;;;;;;;1999.90;999.90;;;12.90;99.90;;;;;;4979031;28;20545;-71
2023/10/08 02:12:03;;;;;;;1999.90;999.90;;;12.90;99.90;;;;;;4967096;28;20406;-71
2023/10/08 02:14:31;;;;;;;1999.90;999.90;;;12.90;99.90;;;;;;4972947;28;20050;-71
2023/10/08 02:17:03;;;;;;;1999.90;999.90;;;12.80;99.90;;;;;;4979000;28;20119;-71
2023/10/08 02:19:29;;;;;;;1999.90;999.90;;;12.80;99.90;;;;;;4986575;28;20054;-70
2023/10/08 02:21:55;;;;;;;1999.90;999.90;;;12.80;99.90;;;;;;4988223;28;20494;-71
2023/10/08 02:24:25;;;;;;;1999.90;999.90;;;12.80;99.90;;;;;;4985628;28;20078;-71
2023/10/08 02:26:55;;;;;;;1999.90;999.90;;;12.80;99.90;;;;;;4977517;28;20080;-71
2023/10/08 02:29:29;;;;;;;1999.90;999.90;;;12.80;99.90;;;;;;4983632;28;20051;-71
2023/10/08 02:31:55;;;;;;;1999.90;999.90;;;12.80;99.90;;;;;;4983720;28;20061;-71
2023/10/08 02:34:21;;;;;;;1999.90;999.90;;;12.80;99.90;;;;;;4978503;28;20502;-71
2023/10/08 02:36:47;;;;;;;1999.90;999.90;;;12.70;99.90;;;;;;4980463;28;20132;-71
2023/10/08 02:39:13;;;;;;;1999.90;999.90;;;12.70;99.90;;;;;;4984639;28;20042;-71
2023/10/08 02:41:46;;;;;;;1999.90;999.90;;;12.70;99.90;;;;;;4980442;28;20093;-71
2023/10/08 02:44:16;;;;;;;1999.90;999.90;;;12.70;99.90;;;;;;4982474;28;20137;-71
2023/10/08 02:46:50;;;;;;;1999.90;999.90;;;12.70;99.90;;;;;;4984164;28;20035;-71
2023/10/08 02:49:20;;;;;;;1999.90;999.90;;;12.70;99.90;;;;;;4987052;28;20641;-71
2023/10/08 02:51:50;;;;;;;1999.90;999.90;;;12.70;99.90;;;;;;4988162;28;20145;-71
2023/10/08 02:54:20;;;;;;;1999.90;999.90;;;12.70;99.90;;;;;;4978753;28;20490;-71
2023/10/08 02:57:13;;;;;;;1999.90;999.90;;;12.70;99.90;;;;;;4985958;28;20046;-71
2023/10/08 02:59:40;;;;;;;1999.90;999.90;;;12.70;99.90;;;;;;4985503;28;20085;-71
2023/10/08 03:02:15;;;;;;;1999.90;999.90;;;12.80;99.90;;;;;;4984478;28;20075;-71
2023/10/08 03:04:45;;;;;;;1999.90;999.90;;;12.70;99.90;;;;;;4978674;28;20090;-71
2023/10/08 03:07:21;;;;;;;1999.90;999.90;;;12.70;99.90;;;;;;4986020;28;20506;-71
2023/10/08 03:09:49;;;;;;;1999.90;999.90;;;12.70;99.90;;;;;;4969046;28;20458;-71
2023/10/08 03:12:17;;;;;;;1999.90;999.90;;;12.70;99.90;;;;;;4970008;28;20041;-72
2023/10/08 03:15:14;;;;;;;1999.90;999.90;;;12.70;99.90;;;;;;4977360;28;20054;-71
2023/10/08 03:17:29;;;;;;;1999.90;999.90;;;12.70;99.90;;;;;;4975305;28;20499;-71
2023/10/08 03:20:27;;;;;;;1999.90;999.90;;;12.70;99.90;;;;;;4974755;28;20054;-71
2023/10/08 03:22:45;;;;;;;1999.90;999.90;;;12.70;99.90;;;;;;4968167;28;20050;-71
2023/10/08 03:25:20;;;;;;;1999.90;999.90;;;12.70;99.90;;;;;;4969560;28;20043;-72
2023/10/08 03:27:48;;;;;;;1999.90;999.90;;;12.70;99.90;;;;;;4977287;28;20083;-72
2023/10/08 03:30:14;;;;;;;1999.90;999.90;;;12.60;99.90;;;;;;5001437;28;20053;-71
2023/10/08 03:32:55;;;;;;;1999.90;999.90;;;12.70;99.90;;;;;;4975727;28;20131;-71
2023/10/08 03:35:27;;;;;;;1999.90;999.90;;;12.60;99.90;;;;;;4999753;28;20495;-72
2023/10/08 03:37:54;;;;;;;1999.90;999.90;;;12.60;99.90;;;;;;4969002;28;20125;-71
2023/10/08 03:40:25;;;;;;;1999.90;999.90;;;12.60;99.90;;;;;;4960461;28;20104;-71
2023/10/08 03:42:55;;;;;;;1999.90;999.90;;;12.60;99.90;;;;;;4979444;28;20050;-71
2023/10/08 03:48:10;;;;;;;;;;;12.70;99.90;;;;;;4974469;28;20039;-71
2023/10/08 03:50:43;;;;;;;1999.90;999.90;;;12.70;99.90;;;;;;4972582;28;19961;-71
2023/10/08 03:53:11;;;;;;;1999.90;999.90;;;12.70;99.90;;;;;;4967123;28;20120;-71
2023/10/08 03:55:40;;;;;;;1999.90;999.90;;;12.70;99.90;;;;;;4983282;28;20046;-71
2023/10/08 03:58:29;;;;;;;1999.90;999.90;;;12.70;99.90;;;;;;4978557;28;20113;-71
2023/10/08 04:01:17;;;;;;;1999.90;999.90;;;12.70;99.90;;;;;;5045716;28;20676;-71
2023/10/08 04:06:22;;;;;;;1999.90;999.90;;;12.70;99.90;;;;;;4974482;28;20125;-71
2023/10/08 04:09:52;;;;;;;1999.90;999.90;;;12.70;99.90;;;;;;4985415;28;20038;-71
2023/10/08 04:14:13;;;;;;;1999.90;999.90;;;12.80;99.90;;;;;;4980986;28;20069;-71
2023/10/08 04:16:38;;;;;;;1999.90;999.90;;;12.80;99.90;;;;;;4980477;28;20030;-71
2023/10/08 04:19:04;;;;;;;1999.90;999.90;;;12.80;99.90;;;;;;5001841;28;20053;-71
2023/10/08 04:21:33;;;;;;;1999.90;999.90;;;12.80;99.90;;;;;;4986820;28;20122;-70
2023/10/08 04:24:03;;;;;;;1999.90;999.90;;;12.80;99.90;;;;;;4985861;28;20125;-71
2023/10/08 04:26:29;;;;;;;1999.90;999.90;;;12.80;99.90;;;;;;5007061;28;20043;-71
2023/10/08 04:29:02;;;;;;;1999.90;999.90;;;12.80;99.90;;;;;;4986426;28;20502;-71
2023/10/08 04:31:37;;;;;;;1999.90;999.90;;;12.80;99.90;;;;;;4986139;28;20042;-71
2023/10/08 04:34:26;;;;;;;1999.90;999.90;;;12.80;99.90;;;;;;4975797;28;20051;-72
2023/10/08 04:36:57;;;;;;;1999.90;999.90;;;12.90;99.90;;;;;;4985595;28;20044;-72
2023/10/08 04:39:26;;;;;;;1999.90;999.90;;;12.80;99.90;;;;;;4983706;28;20153;-71
2023/10/08 04:41:58;;;;;;;1999.90;999.90;;;12.90;99.90;;;;;;4985753;28;20145;-71
2023/10/08 04:44:25;;;;;;;1999.90;999.90;;;12.90;99.90;;;;;;4984798;28;20058;-71
2023/10/08 04:46:52;;;;;;;1999.90;999.90;;;12.90;99.90;;;;;;4981869;28;20053;-72
2023/10/08 04:49:28;;;;;;;1999.90;999.90;;;12.90;99.90;;;;;;4984648;28;20414;-71
2023/10/08 04:52:13;;;;;;;1999.90;999.90;;;12.90;99.90;;;;;;4977486;28;20054;-71
2023/10/08 04:54:40;;;;;;;1999.90;999.90;;;12.90;99.90;;;;;;4976263;28;20114;-71
2023/10/08 04:57:14;;;;;;;1999.90;999.90;;;12.90;99.90;;;;;;4982475;28;20503;-71
2023/10/08 04:59:44;;;;;;;1999.90;999.90;;;12.90;99.90;;;;;;4971844;28;20426;-71
2023/10/08 05:02:19;;;;;;;1999.90;999.90;;;12.90;99.90;;;;;;4976732;28;20122;-71
2023/10/08 05:10:32;;;;;;;1999.90;999.90;;;12.90;99.90;;;;;;4975460;28;20153;-72
2023/10/08 05:15:37;;;;;;;1999.90;999.90;;;12.90;99.90;;;;;;4971231;28;20042;-72
2023/10/08 05:18:23;;;;;;;1999.90;999.90;;;12.90;99.90;;;;;;4973262;28;20088;-71
2023/10/08 05:25:58;;;;;;;1999.90;999.90;;;12.90;99.90;;;;;;4976836;28;20054;-71
2023/10/08 05:28:29;;;;;;;1999.90;999.90;;;12.90;99.90;;;;;;4984982;28;20046;-71
2023/10/08 05:31:11;;;;;;;1999.90;999.90;;;12.90;99.90;;;;;;4978845;28;20042;-71
2023/10/08 05:44:45;;;;;;;1999.90;999.90;;;12.90;99.90;;;;;;4912742;29;20094;-71
2023/10/08 05:47:37;;;;;;;1999.90;999.90;;;12.90;99.90;;;;;;4932022;29;20031;-71
2023/10/08 05:53:01;;;;;;;1999.90;999.90;;;12.90;99.90;;;;;;4935369;29;20059;-71
2023/10/08 05:55:34;;;;;;;1999.90;999.90;;;12.80;99.90;;;;;;4924696;28;20051;-71
2023/10/08 05:58:13;;;;;;;1999.90;999.90;;;12.80;99.90;;;;;;4928582;29;20062;-71
2023/10/08 06:03:39;;;;;;;1999.90;999.90;;;12.80;99.90;;;;;;4927787;28;20043;-71
2023/10/08 06:11:44;;;;;;;1999.90;999.90;;;12.80;99.90;;;;;;4914443;29;20051;-71
2023/10/08 06:14:13;;;;;;;1999.90;999.90;;;12.80;99.90;;;;;;4928105;29;20138;-72
2023/10/08 06:16:44;;;;;;;1999.90;999.90;;;12.80;99.90;;;;;;4965427;28;20473;-72
2023/10/08 06:19:14;;;;;;;1999.90;999.90;;;12.80;99.90;;;;;;4969682;28;20108;-71
2023/10/08 06:21:42;;;;;;;1999.90;999.90;;;12.80;99.90;;;;;;4981080;28;20035;-71
2023/10/08 06:24:09;;;;;;;1999.90;999.90;;;12.80;99.90;;;;;;4970481;28;20038;-71
2023/10/08 06:26:48;;;;;;;1999.90;999.90;;;12.80;99.90;;;;;;4974252;28;20057;-72
2023/10/08 06:29:29;;;;;;;1999.90;999.90;;;12.80;99.90;;;;;;4979016;28;20050;-71
2023/10/08 06:31:56;;;;;;;1999.90;999.90;;;12.80;99.90;;;;;;4957942;28;20384;-71
2023/10/08 06:34:27;;;;;;;1999.90;999.90;;;12.80;99.90;;;;;;4971888;28;20137;-71
2023/10/08 06:36:54;;;;;;;1999.90;999.90;;;12.80;99.90;;;;;;4972380;28;20043;-71
2023/10/08 06:39:33;;;;;;;1999.90;999.90;;;12.90;99.90;;;;;;4968401;28;20478;-71
2023/10/08 06:42:00;;;;;;;1999.90;999.90;;;12.90;99.90;;;;;;5002806;28;20119;-71
2023/10/08 06:44:27;;;;;;;1999.90;999.90;;;12.90;99.90;;;;;;4977212;28;20050;-71
2023/10/08 06:46:54;;;;;;;1999.90;999.90;;;13.00;99.90;;;;;;4981077;28;20522;-71
2023/10/08 06:49:23;;;;;;;1999.90;999.90;;;13.00;99.90;;;;;;4983836;28;20235;-71
2023/10/08 06:51:50;;;;;;;1999.90;999.90;;;13.10;99.90;;;;;;4979590;28;20074;-72
2023/10/08 06:54:17;;;;;;;1999.90;999.90;;;13.20;99.90;;;;;;4980859;28;20042;-71
2023/10/08 06:56:51;;;;;;;1999.90;999.90;;;13.30;99.90;;;;;;4984747;28;20046;-71
2023/10/08 06:59:18;;;;;;;1999.90;999.90;;;13.30;99.90;;;;;;4974943;28;20059;-71
2023/10/08 07:01:46;;;;;;;1999.90;999.90;;;13.30;99.90;;;;;;4976609;28;20042;-71
2023/10/08 07:04:13;;;;;;;1999.90;999.90;;;13.40;99.90;;;;;;4970384;28;20495;-71
2023/10/08 07:06:50;;;;;;;1999.90;999.90;;;13.40;99.90;;;;;;4974767;28;20043;-71
2023/10/08 07:09:22;;;;;;;1999.90;999.90;;;13.40;99.90;;;;;;4971963;28;20065;-71
2023/10/08 07:11:57;;;;;;;1999.90;999.90;;;13.50;99.90;;;;;;4977972;28;20046;-71
2023/10/08 07:14:27;;;;;;;1999.90;999.90;;;13.60;99.90;;;;;;4978898;28;20082;-71
2023/10/08 07:17:00;;;;;;;1999.90;999.90;;;13.70;99.90;;;;;;4974057;28;20042;-71
2023/10/08 07:19:37;;;;;;;1999.90;999.90;;;13.70;99.90;;;;;;4972996;28;20038;-72
2023/10/08 07:22:04;;;;;;;1999.90;999.90;;;13.80;99.90;;;;;;4986165;28;20393;-72
2023/10/08 07:24:34;;;;;;;1999.90;999.90;;;13.80;99.90;;;;;;4975190;28;20046;-72
2023/10/08 07:27:05;;;;;;;1999.90;999.90;;;13.80;99.90;;;;;;4968435;28;20057;-71
2023/10/08 07:29:32;;;;;;;1999.90;999.90;;;13.80;99.90;;;;;;4980288;28;20394;-71
2023/10/08 07:32:09;;;;;;;1999.90;999.90;;;13.90;99.90;;;;;;4983201;28;20076;-72
2023/10/08 07:34:38;;;;;;;1999.90;999.90;;;13.90;99.90;;;;;;4983549;28;20047;-71
2023/10/08 07:37:05;;;;;;;1999.90;999.90;;;13.90;99.90;;;;;;4983466;28;20046;-71
2023/10/08 07:41:59;;;;;;;1999.90;999.90;;;13.90;99.90;;;;;;4972258;28;20061;-71
2023/10/08 07:44:28;;;;;;;1999.90;999.90;;;13.90;99.90;;;;;;4977073;28;20054;-71
2023/10/08 07:46:57;;;;;;;1999.90;999.90;;;13.90;99.90;;;;;;4961607;28;20042;-71
2023/10/08 07:49:29;;;;;;;1999.90;999.90;;;13.90;99.90;;;;;;5001786;28;20094;-71
2023/10/08 07:51:57;;;;;;;1999.90;999.90;;;13.90;99.90;;;;;;4971428;28;20143;-71
2023/10/08 07:54:24;;;;;;;1999.90;999.90;;;13.90;99.90;;;;;;4976243;28;20078;-71
2023/10/08 07:56:59;;;;;;;1999.90;999.90;;;13.90;99.90;;;;;;4974580;28;20042;-71
2023/10/08 07:59:25;;;;;;;1999.90;999.90;;;14.00;99.90;;;;;;4980281;28;20085;-71
2023/10/08 08:01:53;;;;;;;1999.90;999.90;;;14.00;99.90;;;;;;4974841;28;20117;-71
2023/10/08 08:04:22;;;;;;;1999.90;999.90;;;13.90;99.90;;;;;;4970403;28;20118;-71
2023/10/08 08:06:53;;;;;;;1999.90;999.90;;;13.90;99.90;;;;;;4980367;28;20435;-71
2023/10/08 08:09:19;;;;;;;1999.90;999.90;;;13.90;99.90;;;;;;4977524;28;20061;-71
2023/10/08 08:11:46;;;;;;;1999.90;999.90;;;13.80;99.90;;;;;;4969220;28;20121;-71
2023/10/08 08:14:24;;;;;;;1999.90;999.90;;;13.80;99.90;;;;;;4973855;28;20049;-71
2023/10/08 08:16:50;;;;;;;1999.90;999.90;;;13.80;99.90;;;;;;4970878;28;20073;-71
2023/10/08 08:19:17;;;;;;;1999.90;999.90;;;13.90;99.90;;;;;;4970041;28;20445;-71
2023/10/08 08:21:46;;;;;;;1999.90;999.90;;;13.90;99.90;;;;;;4974619;28;20034;-71
2023/10/08 08:24:13;;;;;;;1999.90;999.90;;;13.90;99.90;;;;;;4975220;28;20035;-71
2023/10/08 08:27:01;;;;;;;1999.90;999.90;;;14.00;99.90;;;;;;4980487;28;20126;-72
2023/10/08 08:29:28;;;;;;;1999.90;999.90;;;14.10;99.90;;;;;;4974444;28;20084;-71
2023/10/08 08:31:56;;;;;;;1999.90;999.90;;;14.20;99.90;;;;;;4973274;28;20054;-71
2023/10/08 08:34:23;;;;;;;1999.90;999.90;;;14.40;99.90;;;;;;4981248;28;20042;-71
2023/10/08 08:36:49;;;;;;;1999.90;999.90;;;14.60;99.90;;;;;;4982565;28;20046;-71
2023/10/08 08:39:32;;;;;;;1999.90;999.90;;;14.70;99.90;;;;;;4975330;28;20456;-71
2023/10/08 08:42:07;;;;;;;1999.90;999.90;;;14.80;99.90;;;;;;4970729;28;20563;-71
2023/10/08 08:44:39;;;;;;;1999.90;999.90;;;15.00;99.90;;;;;;4974875;28;20099;-71
2023/10/08 08:47:06;;;;;;;1999.90;999.90;;;15.00;99.90;;;;;;4982964;28;20077;-71
2023/10/08 08:49:39;;;;;;;1999.90;999.90;;;15.00;99.90;;;;;;4977512;28;20047;-71
2023/10/08 08:52:05;;;;;;;1999.90;999.90;;;15.10;99.90;;;;;;4970056;28;20049;-71
2023/10/08 08:54:31;;;;;;;1999.90;999.90;;;15.20;99.90;;;;;;4981552;28;20046;-71
2023/10/08 08:57:01;;;;;;;1999.90;999.90;;;15.20;99.90;;;;;;4977053;28;20039;-71
2023/10/08 08:59:30;;;;;;;1999.90;999.90;;;15.30;99.90;;;;;;4970882;28;20088;-71
2023/10/08 09:02:03;;;;;;;1999.90;999.90;;;15.40;99.90;;;;;;4979100;28;20038;-71
2023/10/08 09:04:32;;;;;;;1999.90;999.90;;;15.50;99.90;;;;;;4957676;28;20039;-71
2023/10/08 09:07:04;;;;;;;1999.90;999.90;;;15.60;99.90;;;;;;4980836;28;20149;-71
2023/10/08 09:09:33;;;;;;;1999.90;999.90;;;15.70;99.90;;;;;;4977926;28;20058;-71
2023/10/08 09:12:00;;;;;;;1999.90;999.90;;;15.80;99.90;;;;;;4981530;28;20038;-72
2023/10/08 09:14:29;;;;;;;1999.90;999.90;;;15.80;99.90;;;;;;4974445;28;20089;-71
2023/10/08 09:16:56;;;;;;;1999.90;999.90;;;15.70;99.90;;;;;;4970020;28;20074;-71
2023/10/08 09:19:24;;;;;;;1999.90;999.90;;;15.70;99.90;;;;;;4976608;28;20050;-71
2023/10/08 09:22:04;;;;;;;1999.90;999.90;;;15.80;99.90;;;;;;4969634;28;20062;-71
2023/10/08 09:24:30;;;;;;;1999.90;999.90;;;16.10;99.90;;;;;;4981343;28;20256;-71
2023/10/08 09:26:58;;;;;;;1999.90;999.90;;;16.40;99.90;;;;;;4969606;28;20043;-71
2023/10/08 09:29:23;;;;;;;1999.90;999.90;;;16.60;99.90;;;;;;4981755;28;20058;-72
2023/10/08 09:31:55;;;;;;;1999.90;999.90;;;16.80;99.90;;;;;;4973263;28;20038;-71
2023/10/08 09:34:30;;;;;;;1999.90;999.90;;;16.90;99.90;;;;;;4975417;28;20125;-72
2023/10/08 09:36:57;;;;;;;1999.90;999.90;;;16.80;99.90;;;;;;4975183;28;20386;-72
2023/10/08 09:39:25;;;;;;;1999.90;999.90;;;16.70;99.90;;;;;;4972036;28;20445;-71
2023/10/08 09:41:54;;;;;;;1999.90;999.90;;;16.60;99.90;;;;;;4980259;28;20482;-71
2023/10/08 09:44:20;;;;;;;357.08;340.48;;;16.40;99.90;;;;;;4977118;28;20057;-72
2023/10/08 09:46:52;;;;;;;1999.90;999.90;;;16.30;99.90;;;;;;4971175;28;20039;-71
2023/10/08 09:49:24;;;;;;;380.83;362.52;;;16.30;99.90;;;;;;4973033;28;20534;-71
2023/10/08 09:51:50;;;;;;;352.60;335.80;;;16.30;99.90;;;;;;4975972;28;20109;-71
2023/10/08 09:54:31;;;;;;;355.50;338.83;;;16.30;99.90;;;;;;4975999;28;20419;-71
2023/10/08 09:56:59;;;;;;;381.42;363.48;;;16.20;99.90;;;;;;4974408;28;20039;-71
2023/10/08 09:59:28;;;;;;;354.30;338.33;;;16.20;99.90;;;;;;4975256;28;20074;-72
2023/10/08 10:01:59;;;;;;;1999.90;999.90;;;16.20;99.90;;;;;;4974654;28;20050;-71
2023/10/08 10:04:28;;;;;;;1999.90;999.90;;;16.30;99.90;;;;;;4976830;28;20731;-71
2023/10/08 10:06:57;;;;;;;357.63;340.98;;;16.60;99.90;;;;;;4984727;28;20348;-71
2023/10/08 10:09:25;;;;;;;333.98;318.70;;;17.00;99.90;;;;;;4986644;28;20383;-71
2023/10/08 10:11:52;;;;;;;322.98;308.70;;;17.20;99.90;;;;;;4982841;28;20145;-71
2023/10/08 10:14:22;;;;;;;321.40;306.73;;;17.50;99.90;;;;;;4970920;28;20132;-71
2023/10/08 10:17:14;;;;;;;307.42;293.85;;;17.70;99.90;;;;;;4980168;28;20046;-71
2023/10/08 10:19:45;;;;;;;289.95;277.17;;;17.90;99.90;;;;;;4983156;28;20407;-71
2023/10/08 10:22:15;;;;;;;1142.90;636.65;;;17.80;99.90;;;;;;4981034;28;20368;-71
2023/10/08 10:24:45;;;;;;;327.77;313.08;;;17.60;99.90;;;;;;4987287;28;20490;-71
2023/10/08 10:27:15;;;;;;;319.95;305.67;;;17.40;99.90;;;;;;4977268;28;20042;-72
2023/10/08 10:29:47;;;;;;;310.20;296.58;;;17.40;99.90;;;;;;5013326;28;20111;-72
2023/10/08 10:32:17;;;;;;;319.83;305.20;;;17.40;99.90;;;;;;4985381;28;20038;-72
2023/10/08 10:34:44;;;;;;;1576.15;822.80;;;17.40;99.90;;;;;;4966369;28;20122;-72
2023/10/08 10:37:19;;;;;;;301.92;288.48;;;17.50;99.90;;;;;;4978134;28;20047;-72
2023/10/08 10:40:00;;;;;;;381.23;362.85;;;17.50;99.90;;;;;;4976817;28;20445;-71
2023/10/08 10:42:28;;;;;;;372.10;354.05;;;17.50;99.90;;;;;;4987483;28;20059;-71
2023/10/08 10:44:56;;;;;;;358.33;341.83;;;17.40;99.90;;;;;;4983213;28;20092;-72
2023/10/08 10:52:32;;;;;;;263.73;252.18;;;17.80;99.90;;;;;;4981070;28;20050;-71
2023/10/08 10:57:56;;;;;;;254.20;243.20;;;17.80;99.90;;;;;;4987896;28;20387;-71
2023/10/08 11:03:02;;;;;;;225.60;215.70;;;18.00;99.90;;;;;;4982897;28;20054;-72
2023/10/08 11:05:37;;;;;;;192.45;183.98;;;18.30;99.90;;;;;;4970651;28;20043;-72
2023/10/08 11:08:07;;;;;;;168.23;160.80;;;18.60;99.90;;;;;;4976992;28;20026;-72
2023/10/08 11:10:38;;;;;;;182.98;174.93;;;18.90;99.90;;;;;;4969797;28;20050;-72
2023/10/08 11:13:14;;;;;;;130.65;124.70;;;19.10;99.90;;;;;;4979889;28;20054;-72
2023/10/08 11:15:48;;;;;;;157.20;150.32;;;19.20;99.90;;;;;;4985853;28;20069;-72
2023/10/08 11:18:16;;;;;;;137.05;130.93;;;19.30;99.90;;;;;;4969138;28;20410;-72
2023/10/08 11:20:44;;;;;;;121.63;116.07;;;19.20;99.90;;;;;;4972616;28;20061;-72
2023/10/08 11:23:41;;;;;;;115.43;110.22;;;19.00;99.90;;;;;;4986123;28;20115;-72
2023/10/08 11:26:07;;;;;;;120.43;114.97;;;18.80;99.90;;;;;;4983385;28;20050;-72
2023/10/08 11:28:41;;;;;;;113.82;108.63;;;18.80;99.90;;;;;;4982495;28;20512;-72
2023/10/08 11:31:10;;;;;;;133.15;127.20;;;18.70;99.90;;;;;;5011313;28;20129;-72
2023/10/08 11:33:37;;;;;;;136.85;130.82;;;18.60;99.90;;;;;;4977783;28;20042;-72
2023/10/08 11:36:18;;;;;;;171.13;163.40;;;18.70;99.90;;;;;;4982414;28;20050;-71
2023/10/08 11:38:47;;;;;;;190.43;181.88;;;18.70;99.90;;;;;;4978692;28;20440;-72
2023/10/08 11:41:20;;;;;;;173.25;165.57;;;18.60;99.90;;;;;;4986634;28;20402;-71
2023/10/08 11:44:00;;;;;;;207.77;198.85;;;18.50;99.90;;;;;;4985110;28;20042;-72
2023/10/08 11:46:38;;;;;;;193.00;184.63;;;18.40;99.90;;;;;;4986836;28;20503;-72
2023/10/08 11:49:11;;;;;;;189.80;181.45;;;18.40;99.90;;;;;;4983142;28;20050;-72
2023/10/08 11:51:40;;;;;;;160.93;153.57;;;18.40;99.90;;;;;;4980041;28;20074;-71
2023/10/08 11:54:06;;;;;;;164.88;157.75;;;18.50;99.90;;;;;;4987002;28;20070;-72
2023/10/08 11:56:33;;;;;;;190.85;182.48;;;18.50;99.90;;;;;;4986975;28;20053;-71
2023/10/08 11:59:08;;;;;;;153.68;147.02;;;18.50;99.90;;;;;;4982532;28;20042;-72
2023/10/08 12:01:37;;;;;;;150.73;144.02;;;18.40;99.90;;;;;;4974179;28;20082;-72
2023/10/08 12:04:04;;;;;;;156.45;149.70;;;18.50;99.90;;;;;;4972097;28;20043;-71
2023/10/08 12:06:30;;;;;;;158.38;151.52;;;18.40;99.90;;;;;;5002579;28;20438;-72
2023/10/08 12:08:59;;;;;;;119.93;114.20;;;18.40;99.90;;;;;;4968278;28;20051;-72
2023/10/08 12:11:32;;;;;;;178.57;171.07;;;18.40;99.90;;;;;;4962115;28;20055;-71
2023/10/08 12:14:02;;;;;;;128.10;122.28;;;18.30;99.90;;;;;;4967288;28;20507;-71
2023/10/08 12:16:35;;;;;;;148.30;141.88;;;18.20;99.90;;;;;;4978007;28;20038;-71
2023/10/08 12:19:01;;;;;;;139.98;133.95;;;18.20;99.90;;;;;;4973419;28;20547;-72
2023/10/08 12:21:30;;;;;;;182.30;174.18;;;18.20;99.90;;;;;;4978614;28;20057;-72
2023/10/08 12:24:04;;;;;;;133.93;127.88;;;18.30;99.90;;;;;;4996992;28;20070;-71
2023/10/08 12:26:31;;;;;;;142.13;136.00;;;18.40;99.90;;;;;;4970176;28;20093;-71
2023/10/08 12:29:00;;;;;;;93.32;88.97;;;18.40;99.90;;;;;;4998283;28;20468;-71
2023/10/08 12:31:28;;;;;;;102.28;97.60;;;18.50;99.90;;;;;;4950919;28;20046;-72
2023/10/08 12:34:00;;;;;;;104.55;99.88;;;18.40;99.90;;;;;;4973419;28;20503;-72
2023/10/08 12:36:33;;;;;;;110.00;105.05;;;18.30;99.90;;;;;;4976443;28;20518;-71
2023/10/08 12:38:58;;;;;;;114.22;109.20;;;18.20;99.90;;;;;;4977515;28;20096;-71
2023/10/08 12:41:31;;;;;;;131.90;125.95;;;18.30;99.90;;;;;;4974444;28;20055;-72
2023/10/08 12:43:58;;;;;;;122.78;117.20;;;18.40;99.90;;;;;;4978081;28;20093;-72
2023/10/08 12:46:24;;;;;;;124.53;118.88;;;18.50;99.90;;;;;;4965264;28;20058;-72
2023/10/08 12:48:56;;;;;;;131.18;125.50;;;18.50;99.90;;;;;;4980192;28;20448;-71
2023/10/08 12:51:24;;;;;;;115.82;110.68;;;18.50;99.90;;;;;;4965800;28;20078;-72
2023/10/08 12:53:58;;;;;;;112.63;107.70;;;18.40;99.90;;;;;;4968681;28;20456;-71
2023/10/08 12:56:31;;;;;;;1999.90;999.90;;;18.40;99.90;;;;;;4967898;28;20054;-71
2023/10/08 12:59:04;;;;;;;162.70;155.53;;;18.30;99.90;;;;;;4967395;28;20118;-71
2023/10/08 13:01:30;;;;;;;130.02;124.30;;;18.40;99.90;;;;;;4974024;28;20461;-71
2023/10/08 13:04:07;;;;;;;106.80;102.03;;;18.60;99.90;;;;;;4997496;28;20041;-71
2023/10/08 13:06:39;;;;;;;122.30;116.88;;;18.80;99.90;;;;;;4988078;28;20042;-72
2023/10/08 13:09:14;;;;;;;104.00;99.47;;;18.90;99.90;;;;;;4975534;28;20122;-72
2023/10/08 13:11:42;;;;;;;131.15;125.40;;;18.90;99.90;;;;;;4966536;28;20047;-71
2023/10/08 13:14:08;;;;;;;101.43;96.97;;;18.80;99.90;;;;;;4945856;28;20047;-72
2023/10/08 13:16:37;;;;;;;122.40;117.10;;;18.70;99.90;;;;;;4978166;28;20049;-72
2023/10/08 13:19:08;;;;;;;84.30;80.45;;;18.60;99.90;;;;;;4980004;28;20081;-72
2023/10/08 13:21:36;;;;;;;128.98;123.07;;;18.50;99.90;;;;;;4977924;28;20050;-72
2023/10/08 13:24:02;;;;;;;129.20;123.32;;;18.40;99.90;;;;;;4988188;28;20068;-71